createdAt,value
2022-10-28T00:02:04.487Z,21.48
2022-10-28T00:07:02.063Z,21.53
2022-10-28T00:09:28.466Z,21.53
2022-10-28T00:11:54.827Z,21.50
2022-10-28T00:14:21.210Z,21.51
2022-10-28T00:16:47.530Z,21.54
2022-10-28T00:19:13.866Z,21.53
2022-10-28T00:21:40.675Z,21.51
2022-10-28T00:24:07.329Z,21.50
2022-10-28T00:26:33.979Z,21.48
2022-10-28T00:29:06.947Z,21.51
2022-10-28T00:31:33.383Z,21.51
2022-10-28T00:34:00.042Z,21.50
2022-10-28T00:36:27.131Z,21.49
2022-10-28T00:38:53.944Z,21.48
2022-10-28T00:41:21.125Z,21.49
2022-10-28T00:43:48.298Z,21.49
2022-10-28T00:46:17.314Z,21.48
2022-10-28T00:48:43.923Z,21.46
2022-10-28T00:51:10.323Z,21.46
2022-10-28T00:53:36.634Z,21.44
2022-10-28T00:56:03.045Z,21.42
2022-10-28T00:58:29.382Z,21.44
2022-10-28T01:00:55.697Z,21.46
2022-10-28T01:03:22.005Z,21.48
2022-10-28T01:05:48.518Z,21.46
2022-10-28T01:08:14.838Z,21.48
2022-10-28T01:10:47.594Z,21.48
2022-10-28T01:13:35.300Z,21.47
2022-10-28T01:16:07.162Z,21.49
2022-10-28T01:18:46.559Z,21.49
2022-10-28T01:21:26.306Z,21.47
2022-10-28T01:24:11.505Z,21.48
2022-10-28T01:26:37.748Z,21.48
2022-10-28T01:29:18.098Z,21.48
2022-10-28T01:31:53.857Z,21.47
2022-10-28T01:34:24.125Z,21.47
2022-10-28T01:36:54.751Z,21.47
2022-10-28T01:39:24.407Z,21.47
2022-10-28T01:41:52.217Z,21.48
2022-10-28T01:44:21.434Z,21.48
2022-10-28T01:46:48.132Z,21.47
2022-10-28T01:49:16.927Z,21.48
2022-10-28T01:51:45.179Z,21.47
2022-10-28T01:54:11.501Z,21.45
2022-10-28T01:56:39.101Z,21.46
2022-10-28T01:59:05.535Z,21.47
2022-10-28T02:01:32.032Z,21.44
2022-10-28T02:03:58.574Z,21.47
2022-10-28T02:06:26.050Z,21.46
2022-10-28T02:08:53.625Z,21.46
2022-10-28T02:11:25.079Z,21.44
2022-10-28T02:13:51.360Z,21.43
2022-10-28T02:16:26.430Z,21.45
2022-10-28T02:18:55.750Z,21.46
2022-10-28T02:21:28.062Z,21.44
2022-10-28T02:23:59.486Z,21.45
2022-10-28T02:26:34.477Z,21.43
2022-10-28T02:29:05.518Z,21.44
2022-10-28T02:31:32.268Z,21.45
2022-10-28T02:33:59.524Z,21.44
2022-10-28T02:36:25.910Z,21.43
2022-10-28T02:38:53.578Z,21.44
2022-10-28T02:41:24.417Z,21.44
2022-10-28T02:43:51.924Z,21.42
2022-10-28T02:46:18.264Z,21.43
2022-10-28T02:48:45.217Z,21.42
2022-10-28T02:51:12.257Z,21.42
2022-10-28T02:53:57.295Z,21.42
2022-10-28T02:56:23.698Z,21.43
2022-10-28T02:58:50.017Z,21.43
2022-10-28T03:01:16.506Z,21.40
2022-10-28T03:03:42.965Z,21.42
2022-10-28T03:06:09.271Z,21.44
2022-10-28T03:08:35.587Z,21.44
2022-10-28T03:11:01.905Z,21.43
2022-10-28T03:13:28.217Z,21.44
2022-10-28T03:15:54.521Z,21.43
2022-10-28T03:18:20.858Z,21.42
2022-10-28T03:20:47.180Z,21.43
2022-10-28T03:23:13.499Z,21.43
2022-10-28T03:25:39.802Z,21.42
2022-10-28T03:28:06.117Z,21.42
2022-10-28T03:30:32.428Z,21.42
2022-10-28T03:32:58.747Z,21.43
2022-10-28T03:35:25.057Z,21.44
2022-10-28T03:37:57.029Z,21.42
2022-10-28T03:40:23.447Z,21.41
2022-10-28T03:42:49.765Z,21.45
2022-10-28T03:45:16.155Z,21.43
2022-10-28T03:47:42.532Z,21.45
2022-10-28T03:50:09.050Z,21.46
2022-10-28T03:52:35.369Z,21.46
2022-10-28T03:55:01.694Z,21.46
2022-10-28T03:57:31.528Z,21.47
2022-10-28T03:59:57.843Z,21.47
2022-10-28T04:02:24.271Z,21.47
2022-10-28T04:04:50.626Z,21.46
2022-10-28T04:07:16.951Z,21.47
2022-10-28T04:09:43.262Z,21.46
2022-10-28T04:12:09.754Z,21.47
2022-10-28T04:14:36.060Z,21.47
2022-10-28T04:17:02.381Z,21.46
2022-10-28T04:19:28.698Z,21.46
2022-10-28T04:21:55.022Z,21.47
2022-10-28T04:24:21.342Z,21.46
2022-10-28T04:26:47.686Z,21.45
2022-10-28T04:29:14.008Z,21.45
2022-10-28T04:31:40.327Z,21.44
2022-10-28T04:34:06.645Z,21.44
2022-10-28T04:36:32.962Z,21.44
2022-10-28T04:38:59.266Z,21.42
2022-10-28T04:41:25.586Z,21.44
2022-10-28T04:43:51.892Z,21.44
2022-10-28T04:46:18.237Z,21.38
2022-10-28T04:48:46.271Z,21.42
2022-10-28T04:51:12.675Z,21.42
2022-10-28T04:53:39.007Z,21.48
2022-10-28T04:56:05.449Z,21.88
2022-10-28T04:58:31.758Z,21.96
2022-10-28T05:00:58.141Z,21.97
2022-10-28T05:03:24.480Z,22.02
2022-10-28T05:05:50.795Z,22.07
2022-10-28T05:08:17.150Z,22.06
2022-10-28T05:10:43.504Z,22.14
2022-10-28T05:13:09.818Z,22.13
2022-10-28T05:15:36.153Z,22.09
2022-10-28T05:18:02.488Z,22.09
2022-10-28T05:20:28.833Z,22.01
2022-10-28T05:22:56.928Z,22.11
2022-10-28T05:25:23.502Z,22.10
2022-10-28T05:27:49.848Z,22.02
2022-10-28T05:30:16.149Z,22.08
2022-10-28T05:32:42.466Z,22.14
2022-10-28T05:35:08.929Z,22.12
2022-10-28T05:37:35.286Z,22.20
2022-10-28T05:40:01.654Z,22.12
2022-10-28T05:42:28.013Z,22.22
2022-10-28T05:44:54.347Z,22.25
2022-10-28T05:47:20.665Z,22.26
2022-10-28T05:49:46.993Z,22.36
2022-10-28T05:52:13.312Z,21.96
2022-10-28T05:54:39.627Z,21.84
2022-10-28T05:57:05.990Z,21.82
2022-10-28T05:59:32.322Z,21.82
2022-10-28T06:01:58.718Z,21.79
2022-10-28T06:04:25.187Z,21.41
2022-10-28T06:06:53.931Z,21.55
2022-10-28T06:09:20.261Z,21.66
2022-10-28T06:11:45.062Z,21.71
2022-10-28T06:14:11.369Z,21.73
2022-10-28T06:16:37.695Z,21.73
2022-10-28T06:19:04.073Z,21.72
2022-10-28T06:21:30.407Z,21.71
2022-10-28T06:23:56.740Z,21.63
2022-10-28T06:26:23.076Z,21.74
2022-10-28T06:28:49.414Z,22.02
2022-10-28T06:31:15.726Z,22.06
2022-10-28T06:33:42.041Z,21.84
2022-10-28T06:36:08.356Z,21.78
2022-10-28T06:38:34.690Z,22.34
2022-10-28T06:41:01.012Z,22.52
2022-10-28T06:43:27.338Z,22.55
2022-10-28T06:45:55.577Z,22.44
2022-10-28T06:48:23.536Z,22.47
2022-10-28T06:50:49.857Z,22.63
2022-10-28T06:53:16.185Z,22.72
2022-10-28T06:55:42.529Z,22.75
2022-10-28T06:58:09.469Z,22.76
2022-10-28T07:00:35.798Z,22.74
2022-10-28T07:03:02.261Z,22.58
2022-10-28T07:05:28.677Z,22.54
2022-10-28T07:07:55.654Z,22.61
2022-10-28T07:10:22.317Z,22.64
2022-10-28T07:12:48.665Z,22.75
2022-10-28T07:15:15.004Z,22.53
2022-10-28T07:17:41.328Z,22.18
2022-10-28T07:20:08.319Z,22.49
2022-10-28T07:22:34.698Z,22.76
2022-10-28T07:25:01.021Z,22.80
2022-10-28T07:27:27.347Z,22.87
2022-10-28T07:29:53.675Z,22.89
2022-10-28T07:32:19.990Z,22.80
2022-10-28T07:34:46.321Z,22.22
2022-10-28T07:37:12.885Z,21.98
2022-10-28T07:39:39.208Z,22.36
2022-10-28T07:42:05.570Z,22.39
2022-10-28T07:44:31.913Z,22.42
2022-10-28T07:46:58.533Z,22.42
2022-10-28T07:49:24.897Z,22.35
2022-10-28T07:51:51.541Z,22.47
2022-10-28T07:54:17.868Z,22.53
2022-10-28T07:56:44.194Z,22.51
2022-10-28T07:59:10.521Z,22.48
2022-10-28T08:01:36.981Z,22.52
2022-10-28T08:04:03.422Z,22.56
2022-10-28T08:06:29.750Z,22.51
2022-10-28T08:08:56.276Z,22.53
2022-10-28T08:11:23.683Z,22.55
2022-10-28T08:13:50.293Z,22.56
2022-10-28T08:16:16.608Z,22.56
2022-10-28T08:18:42.931Z,22.86
2022-10-28T08:21:09.704Z,22.71
2022-10-28T08:23:36.056Z,22.39
2022-10-28T08:26:02.359Z,22.50
2022-10-28T08:28:28.705Z,22.59
2022-10-28T08:31:08.363Z,22.55
2022-10-28T08:33:38.659Z,22.51
2022-10-28T08:36:05.355Z,22.47
2022-10-28T08:38:31.678Z,22.49
2022-10-28T08:40:57.931Z,22.55
2022-10-28T08:43:57.111Z,22.60
2022-10-28T08:46:24.089Z,22.49
2022-10-28T08:48:50.415Z,22.53
2022-10-28T08:51:17.821Z,22.41
2022-10-28T08:53:54.207Z,22.02
2022-10-28T08:56:29.977Z,21.88
2022-10-28T08:59:00.162Z,21.83
2022-10-28T09:01:37.256Z,21.69
2022-10-28T09:04:05.256Z,21.75
2022-10-28T09:06:31.567Z,21.90
2022-10-28T09:08:58.983Z,21.91
2022-10-28T09:11:33.148Z,21.91
2022-10-28T09:14:11.877Z,21.92
2022-10-28T09:16:47.948Z,21.86
2022-10-28T09:19:32.948Z,21.89
2022-10-28T09:22:18.436Z,21.88
2022-10-28T09:24:54.442Z,21.89
2022-10-28T09:27:33.204Z,21.85
2022-10-28T09:30:02.468Z,21.87
2022-10-28T09:32:33.647Z,21.88
2022-10-28T09:35:01.674Z,21.91
2022-10-28T09:37:29.000Z,21.89
2022-10-28T09:39:55.766Z,21.86
2022-10-28T09:42:32.781Z,21.89
2022-10-28T09:45:00.794Z,21.89
2022-10-28T09:47:28.084Z,21.92
2022-10-28T09:49:55.610Z,21.90
2022-10-28T09:52:25.348Z,21.92
2022-10-28T09:54:52.341Z,21.92
2022-10-28T09:57:18.843Z,21.89
2022-10-28T09:59:45.153Z,21.91
2022-10-28T10:02:20.090Z,21.90
2022-10-28T10:04:46.409Z,21.92
2022-10-28T10:07:12.833Z,21.92
2022-10-28T10:09:39.140Z,21.91
2022-10-28T10:12:06.387Z,21.90
2022-10-28T10:14:49.061Z,21.91
2022-10-28T10:17:16.849Z,21.90
2022-10-28T10:20:01.519Z,21.89
2022-10-28T10:22:31.743Z,21.87
2022-10-28T10:24:58.124Z,21.90
2022-10-28T10:27:24.631Z,22.06
2022-10-28T10:29:51.560Z,22.52
2022-10-28T10:32:18.412Z,22.66
2022-10-28T10:34:45.881Z,22.71
2022-10-28T10:37:21.803Z,22.82
2022-10-28T10:40:26.895Z,22.79
2022-10-28T10:43:10.019Z,22.79
2022-10-28T10:45:39.543Z,22.73
2022-10-28T10:48:06.544Z,22.89
2022-10-28T10:50:32.991Z,22.93
2022-10-28T10:52:59.759Z,23.03
2022-10-28T10:55:29.497Z,23.05
2022-10-28T10:57:56.129Z,23.07
2022-10-28T11:00:23.323Z,22.95
2022-10-28T11:02:52.248Z,23.03
2022-10-28T11:05:25.733Z,23.09
2022-10-28T11:07:55.766Z,23.17
2022-10-28T11:10:23.288Z,23.14
2022-10-28T11:12:53.945Z,23.10
2022-10-28T11:15:28.169Z,23.15
2022-10-28T11:18:01.804Z,23.06
2022-10-28T11:20:31.186Z,23.05
2022-10-28T11:23:13.579Z,23.17
2022-10-28T11:25:46.984Z,23.23
2022-10-28T11:28:18.826Z,23.25
2022-10-28T11:30:48.392Z,23.17
2022-10-28T11:33:34.154Z,23.26
2022-10-28T11:36:03.790Z,22.97
2022-10-28T11:38:56.467Z,22.61
2022-10-28T11:41:28.462Z,22.43
2022-10-28T11:43:57.571Z,22.50
2022-10-28T11:46:30.821Z,22.53
2022-10-28T11:49:00.071Z,22.93
2022-10-28T11:51:36.133Z,23.29
2022-10-28T11:54:14.976Z,23.44
2022-10-28T11:56:47.350Z,23.52
2022-10-28T11:59:24.747Z,23.41
2022-10-28T12:02:06.066Z,23.40
2022-10-28T12:04:44.375Z,23.46
2022-10-28T12:07:14.792Z,23.61
2022-10-28T12:09:59.853Z,23.53
2022-10-28T12:12:41.393Z,23.59
2022-10-28T12:15:11.076Z,23.53
2022-10-28T12:17:40.594Z,23.53
2022-10-28T12:20:10.289Z,23.60
2022-10-28T12:22:40.165Z,23.61
2022-10-28T12:25:08.030Z,23.51
2022-10-28T12:27:36.275Z,22.93
2022-10-28T12:30:03.851Z,22.79
2022-10-28T12:32:31.300Z,22.79
2022-10-28T12:35:05.537Z,22.79
2022-10-28T12:37:41.085Z,22.75
2022-10-28T12:40:14.299Z,22.73
2022-10-28T12:42:57.552Z,22.74
2022-10-28T12:45:24.523Z,22.73
2022-10-28T12:47:53.025Z,22.72
2022-10-28T12:50:25.532Z,22.68
2022-10-28T12:52:58.057Z,22.68
2022-10-28T12:55:44.163Z,22.70
2022-10-28T12:58:15.617Z,23.10
2022-10-28T13:00:43.081Z,23.39
2022-10-28T13:03:13.202Z,23.41
2022-10-28T13:05:47.240Z,23.42
2022-10-28T13:08:17.733Z,23.65
2022-10-28T13:11:02.735Z,23.74
2022-10-28T13:13:46.891Z,23.83
2022-10-28T13:16:31.801Z,23.88
2022-10-28T13:19:27.593Z,23.79
2022-10-28T13:22:16.240Z,23.86
2022-10-28T13:25:01.503Z,23.90
2022-10-28T13:27:27.863Z,24.01
2022-10-28T13:29:55.084Z,23.99
2022-10-28T13:32:24.349Z,24.00
2022-10-28T13:34:50.693Z,24.00
2022-10-28T13:37:18.510Z,23.94
2022-10-28T13:39:45.519Z,23.87
2022-10-28T13:42:19.543Z,23.83
2022-10-28T13:44:46.911Z,23.89
2022-10-28T13:47:13.161Z,23.99
2022-10-28T13:49:41.362Z,23.92
2022-10-28T13:52:07.680Z,23.88
2022-10-28T13:54:43.054Z,23.84
2022-10-28T13:57:23.135Z,23.71
2022-10-28T13:59:51.201Z,23.70
2022-10-28T14:02:34.310Z,23.71
2022-10-28T14:05:01.737Z,23.73
2022-10-28T14:07:31.535Z,23.63
2022-10-28T14:09:59.151Z,23.69
2022-10-28T14:12:26.455Z,23.66
2022-10-28T14:15:03.401Z,23.63
2022-10-28T14:17:34.321Z,23.73
2022-10-28T14:20:00.644Z,23.82
2022-10-28T14:22:31.651Z,23.92
2022-10-28T14:24:58.109Z,24.00
2022-10-28T14:27:28.712Z,24.04
2022-10-28T14:29:54.950Z,24.08
2022-10-28T14:32:30.545Z,23.66
2022-10-28T14:34:57.277Z,23.81
2022-10-28T14:37:31.540Z,23.87
2022-10-28T14:40:02.236Z,23.50
2022-10-28T14:42:34.657Z,23.61
2022-10-28T14:45:00.890Z,23.62
2022-10-28T14:47:45.721Z,23.73
2022-10-28T14:50:21.659Z,23.64
2022-10-28T14:52:48.150Z,23.45
2022-10-28T14:55:30.255Z,23.46
2022-10-28T14:58:32.521Z,23.46
2022-10-28T15:01:05.626Z,23.58
2022-10-28T15:03:32.028Z,23.41
2022-10-28T15:06:01.716Z,23.69
2022-10-28T15:08:28.073Z,23.59
2022-10-28T15:10:54.405Z,23.57
2022-10-28T15:13:22.162Z,23.62
2022-10-28T15:15:56.494Z,23.68
2022-10-28T15:18:26.441Z,23.73
2022-10-28T15:21:09.150Z,23.71
2022-10-28T15:23:35.611Z,23.66
2022-10-28T15:26:05.768Z,23.63
2022-10-28T15:28:32.077Z,23.70
2022-10-28T15:30:58.391Z,23.71
2022-10-28T15:33:40.564Z,23.67
2022-10-28T15:36:17.739Z,23.66
2022-10-28T15:38:45.227Z,23.68
2022-10-28T15:41:26.768Z,23.58
2022-10-28T15:44:02.390Z,23.31
2022-10-28T15:46:28.729Z,23.23
2022-10-28T15:48:55.451Z,23.27
2022-10-28T15:51:21.795Z,23.38
2022-10-28T15:53:48.460Z,23.63
2022-10-28T15:56:17.215Z,23.51
2022-10-28T15:58:43.974Z,23.39
2022-10-28T16:01:26.582Z,23.38
2022-10-28T16:03:53.027Z,23.38
2022-10-28T16:06:23.808Z,23.61
2022-10-28T16:08:59.081Z,23.60
2022-10-28T16:11:25.402Z,23.60
2022-10-28T16:13:51.749Z,23.38
2022-10-28T16:16:24.771Z,23.28
2022-10-28T16:19:12.917Z,23.40
2022-10-28T16:21:39.232Z,23.38
2022-10-28T16:24:05.604Z,23.33
2022-10-28T16:26:32.930Z,23.40
2022-10-28T16:28:59.303Z,23.50
2022-10-28T16:31:27.241Z,23.65
2022-10-28T16:33:53.584Z,23.58
2022-10-28T16:36:19.909Z,23.56
2022-10-28T16:38:46.252Z,23.59
2022-10-28T16:41:14.340Z,23.59
2022-10-28T16:43:40.652Z,23.60
2022-10-28T16:46:06.979Z,23.51
2022-10-28T16:48:33.296Z,23.56
2022-10-28T16:51:03.450Z,23.54
2022-10-28T16:53:29.796Z,23.50
2022-10-28T16:55:59.123Z,23.52
2022-10-28T16:58:26.976Z,23.63
2022-10-28T17:00:53.529Z,23.63
2022-10-28T17:03:19.874Z,23.63
2022-10-28T17:05:46.247Z,23.57
2022-10-28T17:08:12.582Z,23.73
2022-10-28T17:10:42.192Z,23.80
2022-10-28T17:13:11.993Z,23.59
2022-10-28T17:15:58.275Z,23.20
2022-10-28T17:18:25.008Z,23.37
2022-10-28T17:21:01.260Z,23.17
2022-10-28T17:23:27.759Z,23.05
2022-10-28T17:26:00.450Z,22.78
2022-10-28T17:28:26.769Z,22.85
2022-10-28T17:30:53.085Z,22.83
2022-10-28T17:33:19.396Z,22.82
2022-10-28T17:35:45.725Z,22.83
2022-10-28T17:38:12.037Z,22.80
2022-10-28T17:40:38.372Z,22.82
2022-10-28T17:43:04.705Z,22.79
2022-10-28T17:45:31.053Z,22.78
2022-10-28T17:47:58.864Z,22.75
2022-10-28T17:50:25.198Z,22.78
2022-10-28T17:52:52.792Z,22.76
2022-10-28T17:55:19.381Z,22.71
2022-10-28T17:57:45.721Z,22.72
2022-10-28T18:00:12.252Z,22.70
2022-10-28T18:02:40.276Z,22.62
2022-10-28T18:05:06.950Z,22.71
2022-10-28T18:07:33.265Z,22.61
2022-10-28T18:09:59.602Z,22.56
2022-10-28T18:12:25.927Z,22.51
2022-10-28T18:14:52.303Z,22.44
2022-10-28T18:17:18.630Z,22.41
2022-10-28T18:19:44.977Z,22.46
2022-10-28T18:22:11.337Z,22.35
2022-10-28T18:24:38.695Z,22.35
2022-10-28T18:27:05.012Z,22.33
2022-10-28T18:29:31.327Z,22.36
2022-10-28T18:31:57.667Z,22.30
2022-10-28T18:34:24.071Z,22.27
2022-10-28T18:36:50.499Z,22.25
2022-10-28T18:39:16.837Z,22.23
2022-10-28T18:41:43.750Z,22.25
2022-10-28T18:44:10.747Z,22.28
2022-10-28T18:46:37.665Z,22.32
2022-10-28T18:49:05.238Z,22.38
2022-10-28T18:51:32.111Z,22.33
2022-10-28T18:53:58.483Z,22.34
2022-10-28T18:56:25.495Z,22.40
2022-10-28T18:58:52.318Z,22.37
2022-10-28T19:01:20.138Z,22.32
2022-10-28T19:03:48.144Z,22.32
2022-10-28T19:06:15.204Z,22.35
2022-10-28T19:08:41.521Z,22.34
2022-10-28T19:11:07.868Z,22.31
2022-10-28T19:13:34.647Z,22.28
2022-10-28T19:16:01.101Z,22.28
2022-10-28T19:18:27.471Z,22.30
2022-10-28T19:20:56.758Z,22.29
2022-10-28T19:23:23.114Z,22.22
2022-10-28T19:25:55.918Z,22.25
2022-10-28T19:28:22.230Z,22.21
2022-10-28T19:30:48.557Z,22.27
2022-10-28T19:33:14.971Z,22.25
2022-10-28T19:35:41.313Z,22.25
2022-10-28T19:38:07.641Z,22.24
2022-10-28T19:40:33.989Z,22.23
2022-10-28T19:43:00.354Z,22.23
2022-10-28T19:45:26.719Z,22.24
2022-10-28T19:47:53.383Z,22.22
2022-10-28T19:50:20.019Z,22.21
2022-10-28T19:52:46.410Z,22.22
2022-10-28T19:55:14.999Z,22.22
2022-10-28T19:57:41.521Z,22.20
2022-10-28T20:00:08.039Z,22.21
2022-10-28T20:02:37.933Z,22.21
2022-10-28T20:05:04.487Z,22.21
2022-10-28T20:07:30.805Z,22.18
2022-10-28T20:12:28.974Z,22.17
2022-10-28T20:14:55.298Z,22.17
2022-10-28T20:17:21.616Z,22.17
2022-10-28T20:19:47.956Z,22.16
2022-10-28T20:22:14.274Z,22.15
2022-10-28T20:24:40.632Z,22.16
2022-10-28T20:27:07.215Z,22.15
2022-10-28T20:29:33.542Z,22.14
2022-10-28T20:31:59.867Z,22.13
2022-10-28T20:34:26.205Z,22.14
2022-10-28T20:36:52.536Z,22.14
2022-10-28T20:39:20.665Z,22.14
2022-10-28T20:41:47.227Z,22.14
2022-10-28T20:44:13.828Z,22.10
2022-10-28T20:46:40.184Z,22.11
2022-10-28T20:49:07.766Z,22.12
2022-10-28T20:51:34.171Z,22.11
2022-10-28T20:54:00.744Z,22.11
2022-10-28T20:56:27.627Z,22.11
2022-10-28T20:58:54.206Z,22.11
2022-10-28T21:01:21.425Z,22.09
2022-10-28T21:03:47.907Z,22.09
2022-10-28T21:06:15.444Z,22.08
2022-10-28T21:08:42.277Z,22.09
2022-10-28T21:11:08.980Z,22.11
2022-10-28T21:13:35.301Z,22.09
2022-10-28T21:16:05.383Z,22.10
2022-10-28T21:18:31.783Z,22.10
2022-10-28T21:20:58.246Z,22.07
2022-10-28T21:23:24.759Z,22.07
2022-10-28T21:25:54.198Z,22.05
2022-10-28T21:28:20.633Z,22.02
2022-10-28T21:30:46.959Z,22.06
2022-10-28T21:33:14.019Z,22.03
2022-10-28T21:35:40.386Z,22.03
2022-10-28T21:38:06.708Z,22.03
2022-10-28T21:40:33.034Z,22.06
2022-10-28T21:42:59.365Z,22.00
2022-10-28T21:45:25.689Z,22.03
2022-10-28T21:47:55.813Z,22.02
2022-10-28T21:50:22.521Z,22.04
2022-10-28T21:52:48.875Z,22.00
2022-10-28T21:55:20.478Z,22.02
2022-10-28T21:57:53.361Z,22.02
2022-10-28T22:00:20.227Z,21.98
2022-10-28T22:02:46.787Z,22.03
2022-10-28T22:05:13.254Z,22.03
2022-10-28T22:07:39.576Z,22.00
2022-10-28T22:10:06.072Z,21.97
2022-10-28T22:12:32.403Z,21.98
2022-10-28T22:14:58.749Z,21.99
2022-10-28T22:17:25.130Z,21.98
2022-10-28T22:19:52.320Z,22.00
2022-10-28T22:22:18.657Z,21.99
2022-10-28T22:24:45.005Z,21.96
2022-10-28T22:27:11.336Z,21.95
2022-10-28T22:29:37.648Z,22.00
2022-10-28T22:32:03.982Z,22.00
2022-10-28T22:34:30.309Z,21.99
2022-10-28T22:36:56.630Z,21.97
2022-10-28T22:39:22.953Z,21.95
2022-10-28T22:41:49.277Z,21.95
2022-10-28T22:44:15.625Z,22.00
2022-10-28T22:46:43.057Z,21.98
2022-10-28T22:49:09.375Z,21.98
2022-10-28T22:51:35.701Z,21.96
2022-10-28T22:54:02.032Z,21.97
2022-10-28T22:56:28.381Z,21.98
2022-10-28T22:58:55.677Z,21.98
2022-10-28T23:01:22.049Z,21.97
2022-10-28T23:03:48.739Z,21.97
2022-10-28T23:06:15.775Z,21.96
2022-10-28T23:08:42.261Z,21.96
2022-10-28T23:11:08.910Z,21.97
2022-10-28T23:13:35.249Z,21.98
2022-10-28T23:16:05.265Z,21.96
2022-10-28T23:18:31.581Z,21.94
2022-10-28T23:21:02.716Z,21.96
2022-10-28T23:23:29.037Z,21.95
2022-10-28T23:25:55.381Z,21.96
2022-10-28T23:28:21.692Z,21.95
2022-10-28T23:30:48.024Z,21.93
2022-10-28T23:33:14.480Z,21.95
2022-10-28T23:35:42.706Z,21.95
2022-10-28T23:38:11.010Z,21.93
2022-10-28T23:40:38.054Z,21.94
2022-10-28T23:43:04.400Z,21.93
2022-10-28T23:45:30.741Z,21.94
2022-10-28T23:47:57.047Z,21.93
2022-10-28T23:50:23.368Z,21.93
2022-10-28T23:52:52.856Z,21.91
2022-10-28T23:55:19.583Z,21.92
2022-10-28T23:57:45.920Z,21.93
